sensor_id;sensor_type;location;lat;lon;timestamp;temperature;humidity
13091;DHT22;6611;52.604;13.438;2022-08-19T00:02:08;21.10;90.39
13091;DHT22;6611;52.604;13.438;2022-08-19T00:07:09;20.98;90.37
13091;DHT22;6611;52.604;13.438;2022-08-19T00:12:13;21.12;90.15
13091;DHT22;6611;52.604;13.438;2022-08-19T00:17:15;21.03;89.93
13091;DHT22;6611;52.604;13.438;2022-08-19T00:22:16;20.95;90.82
13091;DHT22;6611;52.604;13.438;2022-08-19T00:27:20;20.99;90.83
13091;DHT22;6611;52.604;13.438;2022-08-19T00:32:21;21.12;90.33
13091;DHT22;6611;52.604;13.438;2022-08-19T00:37:24;21.03;90.69
13091;DHT22;6611;52.604;13.438;2022-08-19T00:42:28;21.05;90.90
13091;DHT22;6611;52.604;13.438;2022-08-19T00:47:29;21.06;90.82
13091;DHT22;6611;52.604;13.438;2022-08-19T00:52:33;21.09;91.02
13091;DHT22;6611;52.604;13.438;2022-08-19T00:57:40;21.09;90.94
13091;DHT22;6611;52.604;13.438;2022-08-19T01:02:43;21.09;91.00
13091;DHT22;6611;52.604;13.438;2022-08-19T01:07:45;21.09;91.02
13091;DHT22;6611;52.604;13.438;2022-08-19T01:12:49;21.02;91.17
13091;DHT22;6611;52.604;13.438;2022-08-19T01:17:51;21.00;91.11
13091;DHT22;6611;52.604;13.438;2022-08-19T01:22:57;21.09;91.25
13091;DHT22;6611;52.604;13.438;2022-08-19T01:27:59;21.02;91.52
13091;DHT22;6611;52.604;13.438;2022-08-19T01:33:01;21.15;91.03
13091;DHT22;6611;52.604;13.438;2022-08-19T01:38:10;21.19;90.39
13091;DHT22;6611;52.604;13.438;2022-08-19T01:43:19;21.09;90.48
13091;DHT22;6611;52.604;13.438;2022-08-19T01:48:21;20.96;90.97
13091;DHT22;6611;52.604;13.438;2022-08-19T01:53:25;20.95;91.63
13091;DHT22;6611;52.604;13.438;2022-08-19T01:58:30;20.98;91.46
13091;DHT22;6611;52.604;13.438;2022-08-19T02:03:33;21.07;91.12
13091;DHT22;6611;52.604;13.438;2022-08-19T02:08:37;21.10;91.31
13091;DHT22;6611;52.604;13.438;2022-08-19T02:13:39;21.15;91.16
13091;DHT22;6611;52.604;13.438;2022-08-19T02:18:40;21.07;91.03
13091;DHT22;6611;52.604;13.438;2022-08-19T02:23:44;21.06;90.77
13091;DHT22;6611;52.604;13.438;2022-08-19T02:28:46;20.95;91.06
13091;DHT22;6611;52.604;13.438;2022-08-19T02:33:48;20.87;91.35
13091;DHT22;6611;52.604;13.438;2022-08-19T02:38:52;20.84;91.09
13091;DHT22;6611;52.604;13.438;2022-08-19T02:43:54;20.75;91.48
13091;DHT22;6611;52.604;13.438;2022-08-19T02:48:59;20.77;91.63
13091;DHT22;6611;52.604;13.438;2022-08-19T02:54:04;20.85;90.75
13091;DHT22;6611;52.604;13.438;2022-08-19T02:59:07;20.77;91.24
13091;DHT22;6611;52.604;13.438;2022-08-19T03:04:13;20.70;91.14
13091;DHT22;6611;52.604;13.438;2022-08-19T03:09:18;20.61;90.97
13091;DHT22;6611;52.604;13.438;2022-08-19T03:14:19;20.67;91.23
13091;DHT22;6611;52.604;13.438;2022-08-19T03:19:21;20.58;91.07
13091;DHT22;6611;52.604;13.438;2022-08-19T03:24:24;20.57;91.07
13091;DHT22;6611;52.604;13.438;2022-08-19T03:29:28;20.60;91.57
13091;DHT22;6611;52.604;13.438;2022-08-19T03:34:33;20.67;90.91
13091;DHT22;6611;52.604;13.438;2022-08-19T03:39:37;20.70;90.90
13091;DHT22;6611;52.604;13.438;2022-08-19T03:44:39;20.71;90.06
13091;DHT22;6611;52.604;13.438;2022-08-19T03:49:42;20.61;90.78
13091;DHT22;6611;52.604;13.438;2022-08-19T03:54:45;20.58;91.01
13091;DHT22;6611;52.604;13.438;2022-08-19T03:59:47;20.58;90.80
13091;DHT22;6611;52.604;13.438;2022-08-19T04:04:49;20.57;90.73
13091;DHT22;6611;52.604;13.438;2022-08-19T04:09:52;20.48;90.88
13091;DHT22;6611;52.604;13.438;2022-08-19T04:14:53;20.58;91.13
13091;DHT22;6611;52.604;13.438;2022-08-19T04:19:55;20.55;91.25
13091;DHT22;6611;52.604;13.438;2022-08-19T04:24:58;20.58;91.34
13091;DHT22;6611;52.604;13.438;2022-08-19T04:29:59;20.64;90.77
13091;DHT22;6611;52.604;13.438;2022-08-19T04:35:01;20.60;90.68
13091;DHT22;6611;52.604;13.438;2022-08-19T04:40:06;20.75;90.37
13091;DHT22;6611;52.604;13.438;2022-08-19T04:45:25;20.81;89.87
13091;DHT22;6611;52.604;13.438;2022-08-19T04:50:26;20.79;89.93
13091;DHT22;6611;52.604;13.438;2022-08-19T04:55:30;20.81;90.11
13091;DHT22;6611;52.604;13.438;2022-08-19T05:00:31;20.70;89.59
13091;DHT22;6611;52.604;13.438;2022-08-19T05:05:33;20.74;90.33
13091;DHT22;6611;52.604;13.438;2022-08-19T05:10:36;20.84;90.63
13091;DHT22;6611;52.604;13.438;2022-08-19T05:15:38;20.79;89.94
13091;DHT22;6611;52.604;13.438;2022-08-19T05:20:40;20.91;89.55
13091;DHT22;6611;52.604;13.438;2022-08-19T05:26:01;21.19;89.08
13091;DHT22;6611;52.604;13.438;2022-08-19T05:31:03;21.29;89.27
13091;DHT22;6611;52.604;13.438;2022-08-19T05:36:04;21.15;88.90
13091;DHT22;6611;52.604;13.438;2022-08-19T05:41:09;21.39;88.93
13091;DHT22;6611;52.604;13.438;2022-08-19T05:46:17;21.36;88.44
13091;DHT22;6611;52.604;13.438;2022-08-19T05:51:19;21.43;88.78
13091;DHT22;6611;52.604;13.438;2022-08-19T05:56:22;21.44;88.54
13091;DHT22;6611;52.604;13.438;2022-08-19T06:01:25;21.58;88.83
13091;DHT22;6611;52.604;13.438;2022-08-19T06:06:27;21.65;88.71
13091;DHT22;6611;52.604;13.438;2022-08-19T06:11:35;21.79;87.79
13091;DHT22;6611;52.604;13.438;2022-08-19T06:16:39;21.88;87.95
13091;DHT22;6611;52.604;13.438;2022-08-19T06:21:42;21.96;87.39
13091;DHT22;6611;52.604;13.438;2022-08-19T06:26:47;21.96;88.26
13091;DHT22;6611;52.604;13.438;2022-08-19T06:31:51;22.08;88.50
13091;DHT22;6611;52.604;13.438;2022-08-19T06:36:54;22.21;88.28
13091;DHT22;6611;52.604;13.438;2022-08-19T06:41:59;22.29;86.81
13091;DHT22;6611;52.604;13.438;2022-08-19T06:47:02;22.37;87.30
13091;DHT22;6611;52.604;13.438;2022-08-19T06:52:05;22.47;86.92
13091;DHT22;6611;52.604;13.438;2022-08-19T06:57:08;22.54;86.18
13091;DHT22;6611;52.604;13.438;2022-08-19T07:02:15;22.41;86.66
13091;DHT22;6611;52.604;13.438;2022-08-19T07:07:16;22.47;87.21
13091;DHT22;6611;52.604;13.438;2022-08-19T07:12:19;22.61;87.07
13091;DHT22;6611;52.604;13.438;2022-08-19T07:17:21;22.61;86.97
13091;DHT22;6611;52.604;13.438;2022-08-19T07:22:22;22.63;86.19
13091;DHT22;6611;52.604;13.438;2022-08-19T07:27:25;22.67;86.50
13091;DHT22;6611;52.604;13.438;2022-08-19T07:32:27;22.75;86.63
13091;DHT22;6611;52.604;13.438;2022-08-19T07:37:31;22.89;85.21
13091;DHT22;6611;52.604;13.438;2022-08-19T07:42:33;22.85;84.68
13091;DHT22;6611;52.604;13.438;2022-08-19T07:47:35;22.69;85.63
13091;DHT22;6611;52.604;13.438;2022-08-19T07:52:37;22.68;86.60
13091;DHT22;6611;52.604;13.438;2022-08-19T07:57:41;22.48;86.35
13091;DHT22;6611;52.604;13.438;2022-08-19T08:02:42;22.50;86.79
13091;DHT22;6611;52.604;13.438;2022-08-19T08:07:44;22.54;87.71
13091;DHT22;6611;52.604;13.438;2022-08-19T08:13:04;22.71;87.84
13091;DHT22;6611;52.604;13.438;2022-08-19T08:18:06;22.76;86.91
13091;DHT22;6611;52.604;13.438;2022-08-19T08:23:08;22.91;87.30
13091;DHT22;6611;52.604;13.438;2022-08-19T08:28:26;22.85;87.28
13091;DHT22;6611;52.604;13.438;2022-08-19T08:33:31;22.92;87.41
13091;DHT22;6611;52.604;13.438;2022-08-19T08:38:32;23.00;87.32
13091;DHT22;6611;52.604;13.438;2022-08-19T08:43:38;23.03;86.91
13091;DHT22;6611;52.604;13.438;2022-08-19T08:48:47;23.19;86.06
13091;DHT22;6611;52.604;13.438;2022-08-19T08:53:51;23.30;86.35
13091;DHT22;6611;52.604;13.438;2022-08-19T08:59:00;23.13;86.50
13091;DHT22;6611;52.604;13.438;2022-08-19T09:04:04;23.16;86.87
13091;DHT22;6611;52.604;13.438;2022-08-19T09:09:13;23.31;86.03
13091;DHT22;6611;52.604;13.438;2022-08-19T09:14:28;23.31;86.15
13091;DHT22;6611;52.604;13.438;2022-08-19T09:19:32;23.47;86.32
13091;DHT22;6611;52.604;13.438;2022-08-19T09:24:33;23.88;84.99
13091;DHT22;6611;52.604;13.438;2022-08-19T09:29:37;24.47;82.84
13091;DHT22;6611;52.604;13.438;2022-08-19T09:34:38;24.72;82.36
13091;DHT22;6611;52.604;13.438;2022-08-19T09:39:40;24.79;81.81
13091;DHT22;6611;52.604;13.438;2022-08-19T09:44:44;24.79;80.66
13091;DHT22;6611;52.604;13.438;2022-08-19T09:49:46;24.91;79.18
13091;DHT22;6611;52.604;13.438;2022-08-19T09:54:51;25.02;79.64
13091;DHT22;6611;52.604;13.438;2022-08-19T09:59:54;24.98;80.88
13091;DHT22;6611;52.604;13.438;2022-08-19T10:04:56;24.88;81.40
13091;DHT22;6611;52.604;13.438;2022-08-19T10:10:15;24.74;80.10
13091;DHT22;6611;52.604;13.438;2022-08-19T10:15:18;24.50;81.68
13091;DHT22;6611;52.604;13.438;2022-08-19T10:20:21;24.37;80.33
13091;DHT22;6611;52.604;13.438;2022-08-19T10:25:23;24.40;81.68
13091;DHT22;6611;52.604;13.438;2022-08-19T10:30:25;24.40;80.69
13091;DHT22;6611;52.604;13.438;2022-08-19T10:35:27;24.37;81.37
13091;DHT22;6611;52.604;13.438;2022-08-19T10:40:29;24.61;80.61
13091;DHT22;6611;52.604;13.438;2022-08-19T10:45:32;24.92;80.86
13091;DHT22;6611;52.604;13.438;2022-08-19T10:50:34;24.89;79.96
13091;DHT22;6611;52.604;13.438;2022-08-19T10:55:55;24.86;81.17
13091;DHT22;6611;52.604;13.438;2022-08-19T11:01:15;25.20;79.72
13091;DHT22;6611;52.604;13.438;2022-08-19T11:06:17;25.17;78.04
13091;DHT22;6611;52.604;13.438;2022-08-19T11:11:20;24.85;79.81
13091;DHT22;6611;52.604;13.438;2022-08-19T11:16:24;24.61;80.52
13091;DHT22;6611;52.604;13.438;2022-08-19T11:21:28;24.29;80.78
13091;DHT22;6611;52.604;13.438;2022-08-19T11:26:32;24.14;81.00
13091;DHT22;6611;52.604;13.438;2022-08-19T11:31:35;24.09;82.12
13091;DHT22;6611;52.604;13.438;2022-08-19T11:36:41;24.02;81.59
13091;DHT22;6611;52.604;13.438;2022-08-19T11:41:44;23.93;82.06
13091;DHT22;6611;52.604;13.438;2022-08-19T11:46:47;24.01;81.85
13091;DHT22;6611;52.604;13.438;2022-08-19T11:51:48;23.86;82.53
13091;DHT22;6611;52.604;13.438;2022-08-19T11:56:51;23.67;83.58
13091;DHT22;6611;52.604;13.438;2022-08-19T12:01:53;23.62;84.13
13091;DHT22;6611;52.604;13.438;2022-08-19T12:06:57;23.69;83.72
13091;DHT22;6611;52.604;13.438;2022-08-19T12:11:58;24.02;83.21
13091;DHT22;6611;52.604;13.438;2022-08-19T12:17:02;24.50;80.14
13091;DHT22;6611;52.604;13.438;2022-08-19T12:22:06;24.76;79.60
13091;DHT22;6611;52.604;13.438;2022-08-19T12:27:08;24.92;79.06
13091;DHT22;6611;52.604;13.438;2022-08-19T12:32:10;24.96;79.60
13091;DHT22;6611;52.604;13.438;2022-08-19T12:37:13;25.13;76.78
13091;DHT22;6611;52.604;13.438;2022-08-19T12:42:15;25.12;76.48
13091;DHT22;6611;52.604;13.438;2022-08-19T12:47:19;25.26;76.42
13091;DHT22;6611;52.604;13.438;2022-08-19T12:52:22;25.17;76.07
13091;DHT22;6611;52.604;13.438;2022-08-19T12:57:27;25.35;77.42
13091;DHT22;6611;52.604;13.438;2022-08-19T13:02:30;25.27;75.97
13091;DHT22;6611;52.604;13.438;2022-08-19T13:07:32;25.43;75.91
13091;DHT22;6611;52.604;13.438;2022-08-19T13:12:34;25.57;74.92
13091;DHT22;6611;52.604;13.438;2022-08-19T13:17:39;25.51;75.80
13091;DHT22;6611;52.604;13.438;2022-08-19T13:22:41;25.61;76.22
13091;DHT22;6611;52.604;13.438;2022-08-19T13:27:45;25.77;75.26
13091;DHT22;6611;52.604;13.438;2022-08-19T13:32:48;25.71;73.79
13091;DHT22;6611;52.604;13.438;2022-08-19T13:38:07;25.57;73.67
13091;DHT22;6611;52.604;13.438;2022-08-19T13:43:09;25.35;74.90
13091;DHT22;6611;52.604;13.438;2022-08-19T13:48:12;25.43;74.44
13091;DHT22;6611;52.604;13.438;2022-08-19T13:53:14;25.33;74.93
13091;DHT22;6611;52.604;13.438;2022-08-19T13:58:17;25.31;75.59
13091;DHT22;6611;52.604;13.438;2022-08-19T14:03:20;25.30;74.81
13091;DHT22;6611;52.604;13.438;2022-08-19T14:08:21;25.13;76.57
13091;DHT22;6611;52.604;13.438;2022-08-19T14:13:23;25.03;75.72
13091;DHT22;6611;52.604;13.438;2022-08-19T14:18:27;24.91;75.51
13091;DHT22;6611;52.604;13.438;2022-08-19T14:23:28;24.91;76.37
13091;DHT22;6611;52.604;13.438;2022-08-19T14:28:30;24.89;75.68
13091;DHT22;6611;52.604;13.438;2022-08-19T14:33:33;24.76;75.03
13091;DHT22;6611;52.604;13.438;2022-08-19T14:38:34;24.82;76.89
13091;DHT22;6611;52.604;13.438;2022-08-19T14:43:36;24.81;75.70
13091;DHT22;6611;52.604;13.438;2022-08-19T14:48:39;24.74;77.30
13091;DHT22;6611;52.604;13.438;2022-08-19T14:53:41;24.58;75.71
13091;DHT22;6611;52.604;13.438;2022-08-19T14:58:43;24.38;76.96
13091;DHT22;6611;52.604;13.438;2022-08-19T15:03:47;24.13;77.55
13091;DHT22;6611;52.604;13.438;2022-08-19T15:08:49;24.09;77.40
13091;DHT22;6611;52.604;13.438;2022-08-19T15:13:51;24.16;77.26
13091;DHT22;6611;52.604;13.438;2022-08-19T15:18:56;24.30;77.03
13091;DHT22;6611;52.604;13.438;2022-08-19T15:23:59;24.20;76.92
13091;DHT22;6611;52.604;13.438;2022-08-19T15:29:03;24.02;78.80
13091;DHT22;6611;52.604;13.438;2022-08-19T15:34:06;23.88;78.29
13091;DHT22;6611;52.604;13.438;2022-08-19T15:39:08;23.79;78.43
13091;DHT22;6611;52.604;13.438;2022-08-19T15:44:12;23.78;78.49
13091;DHT22;6611;52.604;13.438;2022-08-19T15:49:18;23.71;78.99
13091;DHT22;6611;52.604;13.438;2022-08-19T15:54:20;23.65;78.99
13091;DHT22;6611;52.604;13.438;2022-08-19T15:59:22;23.60;79.89
13091;DHT22;6611;52.604;13.438;2022-08-19T16:04:42;23.43;81.18
13091;DHT22;6611;52.604;13.438;2022-08-19T16:10:03;23.49;81.07
13091;DHT22;6611;52.604;13.438;2022-08-19T16:15:06;23.47;80.86
13091;DHT22;6611;52.604;13.438;2022-08-19T16:20:10;23.49;80.70
13091;DHT22;6611;52.604;13.438;2022-08-19T16:25:13;23.41;81.34
13091;DHT22;6611;52.604;13.438;2022-08-19T16:30:14;23.36;81.33
13091;DHT22;6611;52.604;13.438;2022-08-19T16:35:17;23.27;81.74
13091;DHT22;6611;52.604;13.438;2022-08-19T16:40:19;23.16;82.51
13091;DHT22;6611;52.604;13.438;2022-08-19T16:45:20;23.17;81.98
13091;DHT22;6611;52.604;13.438;2022-08-19T16:50:23;23.12;82.15
13091;DHT22;6611;52.604;13.438;2022-08-19T16:55:25;23.26;81.51
13091;DHT22;6611;52.604;13.438;2022-08-19T17:00:28;23.30;81.28
13091;DHT22;6611;52.604;13.438;2022-08-19T17:05:31;23.12;81.78
13091;DHT22;6611;52.604;13.438;2022-08-19T17:10:32;23.17;82.10
13091;DHT22;6611;52.604;13.438;2022-08-19T17:15:34;23.07;81.99
13091;DHT22;6611;52.604;13.438;2022-08-19T17:20:38;23.05;82.03
13091;DHT22;6611;52.604;13.438;2022-08-19T17:25:41;23.03;82.58
13091;DHT22;6611;52.604;13.438;2022-08-19T17:30:42;22.92;82.59
13091;DHT22;6611;52.604;13.438;2022-08-19T17:35:45;22.82;82.83
13091;DHT22;6611;52.604;13.438;2022-08-19T17:40:48;22.74;83.15
13091;DHT22;6611;52.604;13.438;2022-08-19T17:45:49;22.74;83.58
13091;DHT22;6611;52.604;13.438;2022-08-19T17:50:52;22.71;83.92
13091;DHT22;6611;52.604;13.438;2022-08-19T17:55:54;22.67;83.75
13091;DHT22;6611;52.604;13.438;2022-08-19T18:00:56;22.53;84.20
13091;DHT22;6611;52.604;13.438;2022-08-19T18:06:01;22.48;84.25
13091;DHT22;6611;52.604;13.438;2022-08-19T18:11:03;22.40;84.33
13091;DHT22;6611;52.604;13.438;2022-08-19T18:16:06;22.40;84.39
13091;DHT22;6611;52.604;13.438;2022-08-19T18:21:11;22.30;84.78
13091;DHT22;6611;52.604;13.438;2022-08-19T18:26:13;22.35;84.26
13091;DHT22;6611;52.604;13.438;2022-08-19T18:31:15;22.35;84.59
13091;DHT22;6611;52.604;13.438;2022-08-19T18:36:18;22.29;84.61
13091;DHT22;6611;52.604;13.438;2022-08-19T18:41:20;22.33;84.21
13091;DHT22;6611;52.604;13.438;2022-08-19T18:46:39;22.24;84.32
13091;DHT22;6611;52.604;13.438;2022-08-19T18:51:59;22.23;84.25
13091;DHT22;6611;52.604;13.438;2022-08-19T18:57:02;22.23;84.22
13091;DHT22;6611;52.604;13.438;2022-08-19T19:02:05;22.14;85.04
13091;DHT22;6611;52.604;13.438;2022-08-19T19:07:08;22.14;84.42
13091;DHT22;6611;52.604;13.438;2022-08-19T19:12:10;22.10;85.08
13091;DHT22;6611;52.604;13.438;2022-08-19T19:17:14;22.03;85.58
13091;DHT22;6611;52.604;13.438;2022-08-19T19:22:18;22.13;85.18
13091;DHT22;6611;52.604;13.438;2022-08-19T19:27:20;22.13;85.03
13091;DHT22;6611;52.604;13.438;2022-08-19T19:32:24;22.05;85.14
13091;DHT22;6611;52.604;13.438;2022-08-19T19:37:28;22.06;85.54
13091;DHT22;6611;52.604;13.438;2022-08-19T19:42:29;22.06;85.47
13091;DHT22;6611;52.604;13.438;2022-08-19T19:47:31;22.03;85.34
13091;DHT22;6611;52.604;13.438;2022-08-19T19:52:34;21.96;85.61
13091;DHT22;6611;52.604;13.438;2022-08-19T19:57:35;22.05;85.21
13091;DHT22;6611;52.604;13.438;2022-08-19T20:02:39;22.09;85.23
13091;DHT22;6611;52.604;13.438;2022-08-19T20:07:44;22.09;85.17
13091;DHT22;6611;52.604;13.438;2022-08-19T20:13:04;22.03;84.98
13091;DHT22;6611;52.604;13.438;2022-08-19T20:18:06;21.95;85.81
13091;DHT22;6611;52.604;13.438;2022-08-19T20:23:09;22.01;85.48
13091;DHT22;6611;52.604;13.438;2022-08-19T20:28:11;22.05;85.47
13091;DHT22;6611;52.604;13.438;2022-08-19T20:33:13;22.03;85.18
13091;DHT22;6611;52.604;13.438;2022-08-19T20:38:16;22.12;84.37
13091;DHT22;6611;52.604;13.438;2022-08-19T20:43:17;22.08;84.77
13091;DHT22;6611;52.604;13.438;2022-08-19T20:48:19;21.96;85.32
13091;DHT22;6611;52.604;13.438;2022-08-19T20:53:23;21.93;85.54
13091;DHT22;6611;52.604;13.438;2022-08-19T20:58:26;21.86;85.74
13091;DHT22;6611;52.604;13.438;2022-08-19T21:03:30;21.84;85.62
13091;DHT22;6611;52.604;13.438;2022-08-19T21:08:33;21.86;85.61
13091;DHT22;6611;52.604;13.438;2022-08-19T21:13:35;21.77;85.87
13091;DHT22;6611;52.604;13.438;2022-08-19T21:18:37;21.78;86.36
13091;DHT22;6611;52.604;13.438;2022-08-19T21:23:40;21.74;86.60
13091;DHT22;6611;52.604;13.438;2022-08-19T21:28:41;21.69;86.93
13091;DHT22;6611;52.604;13.438;2022-08-19T21:33:43;21.62;87.34
13091;DHT22;6611;52.604;13.438;2022-08-19T21:38:46;21.68;87.38
13091;DHT22;6611;52.604;13.438;2022-08-19T21:43:48;21.71;87.39
13091;DHT22;6611;52.604;13.438;2022-08-19T21:48:49;21.65;87.47
13091;DHT22;6611;52.604;13.438;2022-08-19T21:53:53;21.67;87.57
13091;DHT22;6611;52.604;13.438;2022-08-19T21:58:54;21.58;87.63
13091;DHT22;6611;52.604;13.438;2022-08-19T22:03:56;21.57;87.58
13091;DHT22;6611;52.604;13.438;2022-08-19T22:08:59;21.68;87.14
13091;DHT22;6611;52.604;13.438;2022-08-19T22:14:00;21.67;86.99
13091;DHT22;6611;52.604;13.438;2022-08-19T22:19:03;21.64;87.10
13091;DHT22;6611;52.604;13.438;2022-08-19T22:24:07;21.59;87.31
13091;DHT22;6611;52.604;13.438;2022-08-19T22:29:09;21.58;87.49
13091;DHT22;6611;52.604;13.438;2022-08-19T22:34:10;21.54;87.84
13091;DHT22;6611;52.604;13.438;2022-08-19T22:39:13;21.50;87.98
13091;DHT22;6611;52.604;13.438;2022-08-19T22:44:15;21.50;88.00
13091;DHT22;6611;52.604;13.438;2022-08-19T22:49:17;21.51;88.10
13091;DHT22;6611;52.604;13.438;2022-08-19T22:54:20;21.48;87.93
13091;DHT22;6611;52.604;13.438;2022-08-19T22:59:21;21.44;87.91
13091;DHT22;6611;52.604;13.438;2022-08-19T23:04:23;21.50;87.81
13091;DHT22;6611;52.604;13.438;2022-08-19T23:09:26;21.48;87.88
13091;DHT22;6611;52.604;13.438;2022-08-19T23:14:27;21.54;87.59
13091;DHT22;6611;52.604;13.438;2022-08-19T23:19:30;21.47;87.69
13091;DHT22;6611;52.604;13.438;2022-08-19T23:24:33;21.41;88.18
13091;DHT22;6611;52.604;13.438;2022-08-19T23:29:34;21.41;87.89
13091;DHT22;6611;52.604;13.438;2022-08-19T23:34:54;21.39;88.17
13091;DHT22;6611;52.604;13.438;2022-08-19T23:39:56;21.44;87.75
13091;DHT22;6611;52.604;13.438;2022-08-19T23:44:59;21.46;87.70
13091;DHT22;6611;52.604;13.438;2022-08-19T23:50:02;21.46;87.63
13091;DHT22;6611;52.604;13.438;2022-08-19T23:55:07;21.29;88.18
